sensor_id;sensor_type;location;lat;lon;timestamp;P1;durP1;ratioP1;P2;durP2;ratioP2
19384;SDS011;9828;54.122;17.974;2023-02-28T00:03:06;181.50;;;79.77;;
19384;SDS011;9828;54.122;17.974;2023-02-28T00:08:27;194.63;;;81.53;;
19384;SDS011;9828;54.122;17.974;2023-02-28T00:13:48;190.27;;;82.43;;
19384;SDS011;9828;54.122;17.974;2023-02-28T00:19:10;189.33;;;81.93;;
19384;SDS011;9828;54.122;17.974;2023-02-28T00:24:33;190.27;;;80.80;;
19384;SDS011;9828;54.122;17.974;2023-02-28T00:29:54;192.33;;;84.43;;
19384;SDS011;9828;54.122;17.974;2023-02-28T00:35:16;213.57;;;86.90;;
19384;SDS011;9828;54.122;17.974;2023-02-28T00:40:37;233.57;;;95.93;;
19384;SDS011;9828;54.122;17.974;2023-02-28T00:45:58;301.97;;;113.33;;
19384;SDS011;9828;54.122;17.974;2023-02-28T00:51:20;305.77;;;106.83;;
19384;SDS011;9828;54.122;17.974;2023-02-28T00:56:41;250.83;;;94.50;;
19384;SDS011;9828;54.122;17.974;2023-02-28T01:02:02;221.93;;;82.57;;
19384;SDS011;9828;54.122;17.974;2023-02-28T01:07:23;216.63;;;90.80;;
19384;SDS011;9828;54.122;17.974;2023-02-28T01:12:45;228.90;;;96.03;;
19384;SDS011;9828;54.122;17.974;2023-02-28T01:18:08;250.37;;;104.53;;
19384;SDS011;9828;54.122;17.974;2023-02-28T01:23:29;199.17;;;92.57;;
19384;SDS011;9828;54.122;17.974;2023-02-28T01:28:53;189.90;;;83.43;;
19384;SDS011;9828;54.122;17.974;2023-02-28T01:34:14;161.07;;;76.17;;
19384;SDS011;9828;54.122;17.974;2023-02-28T01:39:35;130.47;;;63.97;;
19384;SDS011;9828;54.122;17.974;2023-02-28T01:45:02;129.83;;;65.90;;
19384;SDS011;9828;54.122;17.974;2023-02-28T01:50:43;124.43;;;59.50;;
19384;SDS011;9828;54.122;17.974;2023-02-28T01:56:07;150.43;;;64.73;;
19384;SDS011;9828;54.122;17.974;2023-02-28T02:01:30;205.30;;;87.97;;
19384;SDS011;9828;54.122;17.974;2023-02-28T02:06:53;202.63;;;82.50;;
19384;SDS011;9828;54.122;17.974;2023-02-28T02:12:27;151.60;;;65.40;;
19384;SDS011;9828;54.122;17.974;2023-02-28T02:18:18;101.90;;;48.33;;
19384;SDS011;9828;54.122;17.974;2023-02-28T02:24:10;84.43;;;42.67;;
19384;SDS011;9828;54.122;17.974;2023-02-28T02:40:48;79.63;;;42.47;;
19384;SDS011;9828;54.122;17.974;2023-02-28T02:46:33;69.30;;;37.77;;
19384;SDS011;9828;54.122;17.974;2023-02-28T02:52:09;70.00;;;36.60;;
19384;SDS011;9828;54.122;17.974;2023-02-28T02:57:36;79.33;;;37.23;;
19384;SDS011;9828;54.122;17.974;2023-02-28T03:03:07;73.70;;;36.27;;
19384;SDS011;9828;54.122;17.974;2023-02-28T03:08:33;76.30;;;41.03;;
19384;SDS011;9828;54.122;17.974;2023-02-28T03:25:07;114.10;;;49.97;;
19384;SDS011;9828;54.122;17.974;2023-02-28T03:36:17;108.20;;;49.17;;
19384;SDS011;9828;54.122;17.974;2023-02-28T03:47:17;83.77;;;41.57;;
19384;SDS011;9828;54.122;17.974;2023-02-28T03:52:49;97.13;;;43.30;;
19384;SDS011;9828;54.122;17.974;2023-02-28T03:58:26;108.13;;;48.10;;
19384;SDS011;9828;54.122;17.974;2023-02-28T04:04:00;105.77;;;47.40;;
19384;SDS011;9828;54.122;17.974;2023-02-28T04:09:22;110.10;;;45.00;;
19384;SDS011;9828;54.122;17.974;2023-02-28T04:14:43;89.13;;;41.00;;
19384;SDS011;9828;54.122;17.974;2023-02-28T04:20:05;71.13;;;34.47;;
19384;SDS011;9828;54.122;17.974;2023-02-28T04:25:30;76.10;;;36.57;;
19384;SDS011;9828;54.122;17.974;2023-02-28T04:30:55;98.30;;;43.57;;
19384;SDS011;9828;54.122;17.974;2023-02-28T04:36:17;79.50;;;36.70;;
19384;SDS011;9828;54.122;17.974;2023-02-28T04:41:39;95.17;;;41.77;;
19384;SDS011;9828;54.122;17.974;2023-02-28T04:47:00;81.13;;;40.07;;
19384;SDS011;9828;54.122;17.974;2023-02-28T04:52:22;73.33;;;36.07;;
19384;SDS011;9828;54.122;17.974;2023-02-28T04:57:43;69.43;;;33.90;;
19384;SDS011;9828;54.122;17.974;2023-02-28T05:03:05;86.07;;;40.47;;
19384;SDS011;9828;54.122;17.974;2023-02-28T05:08:26;89.90;;;41.73;;
19384;SDS011;9828;54.122;17.974;2023-02-28T05:13:50;105.87;;;45.77;;
19384;SDS011;9828;54.122;17.974;2023-02-28T05:19:12;128.17;;;52.17;;
19384;SDS011;9828;54.122;17.974;2023-02-28T05:24:33;128.63;;;53.77;;
19384;SDS011;9828;54.122;17.974;2023-02-28T05:29:54;114.27;;;48.03;;
19384;SDS011;9828;54.122;17.974;2023-02-28T05:35:16;124.90;;;51.20;;
19384;SDS011;9828;54.122;17.974;2023-02-28T05:40:38;147.73;;;60.17;;
19384;SDS011;9828;54.122;17.974;2023-02-28T05:46:04;162.30;;;64.73;;
19384;SDS011;9828;54.122;17.974;2023-02-28T05:51:26;126.97;;;54.10;;
19384;SDS011;9828;54.122;17.974;2023-02-28T05:56:48;119.83;;;53.17;;
19384;SDS011;9828;54.122;17.974;2023-02-28T06:02:13;114.83;;;48.83;;
19384;SDS011;9828;54.122;17.974;2023-02-28T06:07:36;113.23;;;49.43;;
19384;SDS011;9828;54.122;17.974;2023-02-28T06:12:59;123.87;;;51.73;;
19384;SDS011;9828;54.122;17.974;2023-02-28T06:18:23;119.17;;;55.43;;
19384;SDS011;9828;54.122;17.974;2023-02-28T06:23:44;123.77;;;55.20;;
19384;SDS011;9828;54.122;17.974;2023-02-28T06:29:05;120.03;;;51.17;;
19384;SDS011;9828;54.122;17.974;2023-02-28T06:34:26;126.13;;;54.70;;
19384;SDS011;9828;54.122;17.974;2023-02-28T06:39:48;277.10;;;111.33;;
19384;SDS011;9828;54.122;17.974;2023-02-28T06:45:10;217.57;;;95.50;;
19384;SDS011;9828;54.122;17.974;2023-02-28T06:50:31;136.50;;;62.17;;
19384;SDS011;9828;54.122;17.974;2023-02-28T06:55:53;99.97;;;49.67;;
19384;SDS011;9828;54.122;17.974;2023-02-28T07:01:15;98.30;;;46.17;;
19384;SDS011;9828;54.122;17.974;2023-02-28T07:06:36;101.60;;;45.70;;
19384;SDS011;9828;54.122;17.974;2023-02-28T07:11:58;119.20;;;59.20;;
19384;SDS011;9828;54.122;17.974;2023-02-28T07:17:20;105.07;;;52.97;;
19384;SDS011;9828;54.122;17.974;2023-02-28T07:22:41;106.77;;;50.13;;
19384;SDS011;9828;54.122;17.974;2023-02-28T07:28:02;80.10;;;42.57;;
19384;SDS011;9828;54.122;17.974;2023-02-28T07:33:24;56.47;;;30.57;;
19384;SDS011;9828;54.122;17.974;2023-02-28T07:38:46;24.45;;;15.02;;
19384;SDS011;9828;54.122;17.974;2023-02-28T07:44:10;8.07;;;5.30;;
19384;SDS011;9828;54.122;17.974;2023-02-28T07:49:32;11.90;;;5.07;;
19384;SDS011;9828;54.122;17.974;2023-02-28T07:54:53;11.25;;;5.90;;
19384;SDS011;9828;54.122;17.974;2023-02-28T08:00:14;11.25;;;6.10;;
19384;SDS011;9828;54.122;17.974;2023-02-28T08:05:38;10.48;;;6.93;;
19384;SDS011;9828;54.122;17.974;2023-02-28T08:11:01;12.95;;;6.88;;
19384;SDS011;9828;54.122;17.974;2023-02-28T08:16:23;16.65;;;7.05;;
19384;SDS011;9828;54.122;17.974;2023-02-28T08:21:44;15.48;;;6.50;;
19384;SDS011;9828;54.122;17.974;2023-02-28T08:27:06;15.30;;;7.28;;
19384;SDS011;9828;54.122;17.974;2023-02-28T08:32:27;8.93;;;5.47;;
19384;SDS011;9828;54.122;17.974;2023-02-28T08:37:49;14.65;;;6.60;;
19384;SDS011;9828;54.122;17.974;2023-02-28T08:43:11;12.90;;;6.35;;
19384;SDS011;9828;54.122;17.974;2023-02-28T08:48:33;9.30;;;5.45;;
19384;SDS011;9828;54.122;17.974;2023-02-28T08:53:58;9.52;;;4.95;;
19384;SDS011;9828;54.122;17.974;2023-02-28T08:59:21;9.60;;;4.90;;
19384;SDS011;9828;54.122;17.974;2023-02-28T09:04:42;7.90;;;4.38;;
19384;SDS011;9828;54.122;17.974;2023-02-28T09:10:05;8.63;;;4.63;;
19384;SDS011;9828;54.122;17.974;2023-02-28T09:15:27;7.80;;;3.83;;
19384;SDS011;9828;54.122;17.974;2023-02-28T09:20:49;9.13;;;3.10;;
19384;SDS011;9828;54.122;17.974;2023-02-28T09:26:15;7.90;;;3.42;;
19384;SDS011;9828;54.122;17.974;2023-02-28T09:31:37;8.65;;;3.00;;
19384;SDS011;9828;54.122;17.974;2023-02-28T09:36:59;5.13;;;2.22;;
19384;SDS011;9828;54.122;17.974;2023-02-28T09:42:21;5.50;;;2.20;;
19384;SDS011;9828;54.122;17.974;2023-02-28T09:47:50;3.95;;;2.22;;
19384;SDS011;9828;54.122;17.974;2023-02-28T09:53:23;10.65;;;3.78;;
19384;SDS011;9828;54.122;17.974;2023-02-28T09:58:57;5.13;;;2.20;;
19384;SDS011;9828;54.122;17.974;2023-02-28T10:04:40;4.85;;;2.17;;
19384;SDS011;9828;54.122;17.974;2023-02-28T10:16:01;3.95;;;2.50;;
19384;SDS011;9828;54.122;17.974;2023-02-28T10:27:31;6.93;;;2.30;;
19384;SDS011;9828;54.122;17.974;2023-02-28T10:32:55;6.80;;;2.53;;
19384;SDS011;9828;54.122;17.974;2023-02-28T10:38:23;5.65;;;2.60;;
19384;SDS011;9828;54.122;17.974;2023-02-28T10:43:47;4.07;;;2.13;;
19384;SDS011;9828;54.122;17.974;2023-02-28T10:49:13;7.85;;;4.72;;
19384;SDS011;9828;54.122;17.974;2023-02-28T10:54:40;7.20;;;4.97;;
19384;SDS011;9828;54.122;17.974;2023-02-28T11:00:15;5.05;;;2.92;;
19384;SDS011;9828;54.122;17.974;2023-02-28T11:05:45;10.15;;;4.20;;
19384;SDS011;9828;54.122;17.974;2023-02-28T11:11:09;5.22;;;3.42;;
19384;SDS011;9828;54.122;17.974;2023-02-28T11:16:34;43.28;;;23.13;;
19384;SDS011;9828;54.122;17.974;2023-02-28T11:22:02;56.40;;;28.88;;
19384;SDS011;9828;54.122;17.974;2023-02-28T11:32:52;8.32;;;3.65;;
19384;SDS011;9828;54.122;17.974;2023-02-28T11:38:13;5.97;;;3.28;;
19384;SDS011;9828;54.122;17.974;2023-02-28T11:43:46;4.32;;;2.10;;
19384;SDS011;9828;54.122;17.974;2023-02-28T12:06:15;8.32;;;2.05;;
19384;SDS011;9828;54.122;17.974;2023-02-28T12:28:34;3.70;;;1.53;;
19384;SDS011;9828;54.122;17.974;2023-02-28T12:34:04;4.88;;;2.83;;
19384;SDS011;9828;54.122;17.974;2023-02-28T12:39:31;6.43;;;2.23;;
19384;SDS011;9828;54.122;17.974;2023-02-28T12:45:10;3.60;;;1.87;;
19384;SDS011;9828;54.122;17.974;2023-02-28T12:50:39;3.05;;;1.85;;
19384;SDS011;9828;54.122;17.974;2023-02-28T13:12:47;11.27;;;2.63;;
19384;SDS011;9828;54.122;17.974;2023-02-28T13:18:25;3.93;;;1.83;;
19384;SDS011;9828;54.122;17.974;2023-02-28T13:23:59;2.53;;;1.67;;
19384;SDS011;9828;54.122;17.974;2023-02-28T13:29:30;2.13;;;1.70;;
19384;SDS011;9828;54.122;17.974;2023-02-28T13:40:27;3.27;;;2.13;;
19384;SDS011;9828;54.122;17.974;2023-02-28T13:46:05;4.50;;;2.77;;
19384;SDS011;9828;54.122;17.974;2023-02-28T13:51:46;5.40;;;2.87;;
19384;SDS011;9828;54.122;17.974;2023-02-28T13:57:23;4.30;;;2.30;;
19384;SDS011;9828;54.122;17.974;2023-02-28T14:03:07;4.00;;;2.10;;
19384;SDS011;9828;54.122;17.974;2023-02-28T14:08:35;6.07;;;2.73;;
19384;SDS011;9828;54.122;17.974;2023-02-28T14:13:56;5.93;;;2.27;;
19384;SDS011;9828;54.122;17.974;2023-02-28T14:19:28;5.00;;;2.87;;
19384;SDS011;9828;54.122;17.974;2023-02-28T14:36:24;7.80;;;4.17;;
19384;SDS011;9828;54.122;17.974;2023-02-28T14:41:52;8.63;;;4.67;;
19384;SDS011;9828;54.122;17.974;2023-02-28T14:47:14;25.80;;;8.33;;
19384;SDS011;9828;54.122;17.974;2023-02-28T14:52:36;7.87;;;2.90;;
19384;SDS011;9828;54.122;17.974;2023-02-28T14:57:59;10.47;;;4.17;;
19384;SDS011;9828;54.122;17.974;2023-02-28T15:03:36;7.50;;;2.50;;
19384;SDS011;9828;54.122;17.974;2023-02-28T15:09:10;7.77;;;2.70;;
19384;SDS011;9828;54.122;17.974;2023-02-28T15:14:42;13.37;;;5.93;;
19384;SDS011;9828;54.122;17.974;2023-02-28T15:20:04;9.00;;;4.77;;
19384;SDS011;9828;54.122;17.974;2023-02-28T15:25:26;5.30;;;2.77;;
19384;SDS011;9828;54.122;17.974;2023-02-28T15:30:58;9.30;;;4.30;;
19384;SDS011;9828;54.122;17.974;2023-02-28T15:36:23;5.73;;;3.57;;
19384;SDS011;9828;54.122;17.974;2023-02-28T15:41:49;8.33;;;3.63;;
19384;SDS011;9828;54.122;17.974;2023-02-28T15:47:16;7.70;;;3.87;;
19384;SDS011;9828;54.122;17.974;2023-02-28T15:52:41;4.47;;;2.80;;
19384;SDS011;9828;54.122;17.974;2023-02-28T15:58:04;14.90;;;3.00;;
19384;SDS011;9828;54.122;17.974;2023-02-28T16:03:32;4.50;;;2.33;;
19384;SDS011;9828;54.122;17.974;2023-02-28T16:09:02;6.30;;;3.43;;
19384;SDS011;9828;54.122;17.974;2023-02-28T16:14:25;7.53;;;3.43;;
19384;SDS011;9828;54.122;17.974;2023-02-28T16:19:58;7.23;;;3.43;;
19384;SDS011;9828;54.122;17.974;2023-02-28T16:25:21;6.73;;;3.30;;
19384;SDS011;9828;54.122;17.974;2023-02-28T16:30:54;10.37;;;5.60;;
19384;SDS011;9828;54.122;17.974;2023-02-28T16:36:25;13.67;;;5.80;;
19384;SDS011;9828;54.122;17.974;2023-02-28T16:41:46;18.17;;;7.30;;
19384;SDS011;9828;54.122;17.974;2023-02-28T16:47:09;19.43;;;7.43;;
19384;SDS011;9828;54.122;17.974;2023-02-28T16:52:31;15.73;;;7.07;;
19384;SDS011;9828;54.122;17.974;2023-02-28T16:57:53;11.80;;;5.80;;
19384;SDS011;9828;54.122;17.974;2023-02-28T17:03:36;13.03;;;7.27;;
19384;SDS011;9828;54.122;17.974;2023-02-28T17:08:58;14.13;;;7.63;;
19384;SDS011;9828;54.122;17.974;2023-02-28T17:14:19;14.40;;;7.77;;
19384;SDS011;9828;54.122;17.974;2023-02-28T17:19:41;13.57;;;7.37;;
19384;SDS011;9828;54.122;17.974;2023-02-28T17:25:04;12.93;;;7.17;;
19384;SDS011;9828;54.122;17.974;2023-02-28T17:30:27;11.57;;;6.53;;
19384;SDS011;9828;54.122;17.974;2023-02-28T17:35:49;10.33;;;4.80;;
19384;SDS011;9828;54.122;17.974;2023-02-28T17:41:11;8.93;;;5.10;;
19384;SDS011;9828;54.122;17.974;2023-02-28T17:46:32;20.57;;;8.70;;
19384;SDS011;9828;54.122;17.974;2023-02-28T17:51:53;35.50;;;17.67;;
19384;SDS011;9828;54.122;17.974;2023-02-28T17:57:15;34.33;;;18.13;;
19384;SDS011;9828;54.122;17.974;2023-02-28T18:02:37;27.40;;;13.47;;
19384;SDS011;9828;54.122;17.974;2023-02-28T18:07:58;22.20;;;10.77;;
19384;SDS011;9828;54.122;17.974;2023-02-28T18:13:20;19.63;;;9.23;;
19384;SDS011;9828;54.122;17.974;2023-02-28T18:18:42;17.10;;;8.33;;
19384;SDS011;9828;54.122;17.974;2023-02-28T18:24:04;20.83;;;7.80;;
19384;SDS011;9828;54.122;17.974;2023-02-28T18:29:25;19.73;;;8.07;;
19384;SDS011;9828;54.122;17.974;2023-02-28T18:34:47;24.77;;;10.80;;
19384;SDS011;9828;54.122;17.974;2023-02-28T18:40:09;34.63;;;17.17;;
19384;SDS011;9828;54.122;17.974;2023-02-28T18:45:33;46.83;;;21.13;;
19384;SDS011;9828;54.122;17.974;2023-02-28T18:50:55;31.57;;;15.90;;
19384;SDS011;9828;54.122;17.974;2023-02-28T18:56:18;23.20;;;11.87;;
19384;SDS011;9828;54.122;17.974;2023-02-28T19:01:40;19.20;;;11.00;;
19384;SDS011;9828;54.122;17.974;2023-02-28T19:07:01;14.83;;;10.10;;
19384;SDS011;9828;54.122;17.974;2023-02-28T19:12:22;43.90;;;20.80;;
19384;SDS011;9828;54.122;17.974;2023-02-28T19:17:44;22.27;;;12.20;;
19384;SDS011;9828;54.122;17.974;2023-02-28T19:23:05;22.67;;;11.90;;
19384;SDS011;9828;54.122;17.974;2023-02-28T19:28:27;29.63;;;15.67;;
19384;SDS011;9828;54.122;17.974;2023-02-28T19:33:50;26.30;;;13.33;;
19384;SDS011;9828;54.122;17.974;2023-02-28T19:39:12;17.07;;;8.90;;
19384;SDS011;9828;54.122;17.974;2023-02-28T19:44:33;15.13;;;8.53;;
19384;SDS011;9828;54.122;17.974;2023-02-28T19:49:55;26.57;;;13.50;;
19384;SDS011;9828;54.122;17.974;2023-02-28T19:55:18;35.43;;;15.97;;
19384;SDS011;9828;54.122;17.974;2023-02-28T20:00:39;29.40;;;14.83;;
19384;SDS011;9828;54.122;17.974;2023-02-28T20:06:02;27.87;;;12.50;;
19384;SDS011;9828;54.122;17.974;2023-02-28T20:11:27;28.03;;;14.80;;
19384;SDS011;9828;54.122;17.974;2023-02-28T20:16:49;54.30;;;23.17;;
19384;SDS011;9828;54.122;17.974;2023-02-28T20:22:10;73.73;;;31.53;;
19384;SDS011;9828;54.122;17.974;2023-02-28T20:27:32;50.17;;;23.13;;
19384;SDS011;9828;54.122;17.974;2023-02-28T20:32:54;31.83;;;17.20;;
19384;SDS011;9828;54.122;17.974;2023-02-28T20:38:16;22.83;;;11.53;;
19384;SDS011;9828;54.122;17.974;2023-02-28T20:43:37;22.97;;;11.43;;
19384;SDS011;9828;54.122;17.974;2023-02-28T20:48:59;22.00;;;10.50;;
19384;SDS011;9828;54.122;17.974;2023-02-28T20:54:20;22.70;;;11.30;;
19384;SDS011;9828;54.122;17.974;2023-02-28T20:59:42;21.60;;;9.40;;
19384;SDS011;9828;54.122;17.974;2023-02-28T21:05:03;17.87;;;9.20;;
19384;SDS011;9828;54.122;17.974;2023-02-28T21:10:25;17.73;;;8.33;;
19384;SDS011;9828;54.122;17.974;2023-02-28T21:15:46;12.43;;;7.67;;
19384;SDS011;9828;54.122;17.974;2023-02-28T21:21:12;21.67;;;10.63;;
19384;SDS011;9828;54.122;17.974;2023-02-28T21:26:34;72.60;;;30.47;;
19384;SDS011;9828;54.122;17.974;2023-02-28T21:31:57;107.50;;;43.10;;
19384;SDS011;9828;54.122;17.974;2023-02-28T21:37:19;177.43;;;66.10;;
19384;SDS011;9828;54.122;17.974;2023-02-28T21:42:40;181.80;;;65.70;;
19384;SDS011;9828;54.122;17.974;2023-02-28T21:48:01;171.33;;;62.30;;
19384;SDS011;9828;54.122;17.974;2023-02-28T21:53:22;161.90;;;57.43;;
19384;SDS011;9828;54.122;17.974;2023-02-28T21:58:44;150.07;;;55.63;;
19384;SDS011;9828;54.122;17.974;2023-02-28T22:04:06;166.43;;;59.93;;
19384;SDS011;9828;54.122;17.974;2023-02-28T22:09:30;155.27;;;56.97;;
19384;SDS011;9828;54.122;17.974;2023-02-28T22:14:51;153.40;;;57.17;;
19384;SDS011;9828;54.122;17.974;2023-02-28T22:20:14;137.87;;;53.43;;
19384;SDS011;9828;54.122;17.974;2023-02-28T22:25:36;119.47;;;45.40;;
19384;SDS011;9828;54.122;17.974;2023-02-28T22:30:57;109.57;;;43.57;;
19384;SDS011;9828;54.122;17.974;2023-02-28T22:36:20;89.33;;;35.93;;
19384;SDS011;9828;54.122;17.974;2023-02-28T22:41:43;47.40;;;19.80;;
19384;SDS011;9828;54.122;17.974;2023-02-28T22:47:04;21.87;;;10.27;;
19384;SDS011;9828;54.122;17.974;2023-02-28T22:52:25;23.70;;;10.70;;
19384;SDS011;9828;54.122;17.974;2023-02-28T22:57:47;18.60;;;9.33;;
19384;SDS011;9828;54.122;17.974;2023-02-28T23:03:09;16.13;;;8.00;;
19384;SDS011;9828;54.122;17.974;2023-02-28T23:08:30;15.53;;;7.53;;
19384;SDS011;9828;54.122;17.974;2023-02-28T23:13:51;15.87;;;5.87;;
19384;SDS011;9828;54.122;17.974;2023-02-28T23:24:42;11.40;;;5.67;;
19384;SDS011;9828;54.122;17.974;2023-02-28T23:30:04;9.77;;;5.27;;
19384;SDS011;9828;54.122;17.974;2023-02-28T23:35:26;15.97;;;5.67;;
19384;SDS011;9828;54.122;17.974;2023-02-28T23:40:47;16.50;;;6.70;;
19384;SDS011;9828;54.122;17.974;2023-02-28T23:46:09;14.93;;;7.20;;
19384;SDS011;9828;54.122;17.974;2023-02-28T23:51:31;13.77;;;6.57;;
19384;SDS011;9828;54.122;17.974;2023-02-28T23:56:52;11.63;;;6.20;;
